Miami, Florida
Traffic Map
Current Weather Conditions
Miami, Florida
Broken Clouds
Broken Clouds
73°
Feels Like: 73°
Wind Chill: 73° Ceiling: 25000
Heat Index: 73° Visibility: 10mi
Dew Point: 65° Wind: 7mph
Humidity: 76% Direction: 130° (SE)
Pressure: 30.1in Gusts: 0mph
Raw Report DataKMIA 132353Z 13006KT 10SM FEW040 BKN250 23/18 A3010 RMK AO2 SLP191 T02280183 10267 20228 53005
Traffic Incident Summary
Active as of:
Severity:
Category:
InformationThere was an issue retrieving the traffic information for this location. Please try a different location or try again shortly.
Advertisements